Flugplatz Innsbruck (LOWI)

Hier findest Du alle Informationen zum Flugplatz Innsbruck (LOWI).

Informationen für Piloten zum Flugplatz Innsbruck

Hier findest Du alle relevanten Informationen, die Du als Pilot benötigst, um Innsbruck anzufliegen.

Flugplatz: Innsbruck ICAO-Code: LOWI
Frequenz Turm: 120.10 Mhz GAFOR Gebiet: -
Frequenz Ground: 120.10 Mhz Mogas: nein
Platzrunde: S 3500 ft Landegebühr: -
Platzhöhe: - Sunrise: 04:00 Uhr UTC
Pisten: 08/26 - 2000 m x 45 m, ASPH Sunset: 18:40 Uhr UTC

Flugwetter am Flugplatz Innsbruck

Die METAR Information stammen aus EDMO (91.40 km entfernt).

METAR Code:
2022/08/08 06:20
EDMO 080620Z 08004KT CAVOK 16/11 Q1023

Flugschulen am Flugplatz Innsbruck

Am Flugplatz Innsbruck gibt es leider keine Flugschule.

Kommentare zum Flugplatz Innsbruck

Zum Flugplatz Innsbruck wurden 1 Kommentare geschrieben. Wenn Du möchtest, kannst Du auch einen Kommentar hinterlassen oder den Flugplatz bewerten. Dazu musst Du Dich zunächst anmelden oder kostenlos registrieren.

    • Professionelles Handling
    • GAT und Security sehr freundlich
    • Schöner Anflug
    • Trotz viel Verkehr entspannter Tower/Radar
Jetzt anmelden

Passwort vergessen

Umfrage Archiv

Sendet Ihr ADS-B und/oder FLARM?

Ja
83.2 %
Nein
16.8 %
Stimmen: 197 | Diskussion
Anzeige: Roland Aircraft
Statistik Alle Mitglieder

Aktuell sind 58 Besucher online, davon 3 Mitglieder und 55 Gäste.


Mitglieder online:
TobiasM  wolfgang w  JPM 

Anzeige: ULPower Aero Engines Anzeige: Pocket FMS